sensor_id;sensor_type;location;lat;lon;timestamp;P1;durP1;ratioP1;P2;durP2;ratioP2
60370;SDS011;48550;40.588;49.684;2023-01-30T00:01:18;120.15;;;40.17;;
60370;SDS011;48550;40.588;49.684;2023-01-30T00:03:46;118.45;;;39.75;;
60370;SDS011;48550;40.588;49.684;2023-01-30T00:06:12;124.45;;;40.58;;
60370;SDS011;48550;40.588;49.684;2023-01-30T00:08:38;124.78;;;42.92;;
60370;SDS011;48550;40.588;49.684;2023-01-30T00:11:04;112.90;;;39.63;;
60370;SDS011;48550;40.588;49.684;2023-01-30T00:13:31;99.45;;;37.97;;
60370;SDS011;48550;40.588;49.684;2023-01-30T00:15:57;98.38;;;38.28;;
60370;SDS011;48550;40.588;49.684;2023-01-30T00:18:22;92.38;;;35.30;;
60370;SDS011;48550;40.588;49.684;2023-01-30T00:20:53;100.07;;;35.08;;
60370;SDS011;48550;40.588;49.684;2023-01-30T00:23:20;102.70;;;34.78;;
60370;SDS011;48550;40.588;49.684;2023-01-30T00:25:45;94.72;;;35.72;;
60370;SDS011;48550;40.588;49.684;2023-01-30T00:28:11;90.07;;;33.90;;
60370;SDS011;48550;40.588;49.684;2023-01-30T00:30:37;91.93;;;32.78;;
60370;SDS011;48550;40.588;49.684;2023-01-30T00:33:02;88.00;;;34.13;;
60370;SDS011;48550;40.588;49.684;2023-01-30T00:35:28;86.50;;;33.47;;
60370;SDS011;48550;40.588;49.684;2023-01-30T00:37:57;84.63;;;33.33;;
60370;SDS011;48550;40.588;49.684;2023-01-30T00:40:25;89.93;;;34.83;;
60370;SDS011;48550;40.588;49.684;2023-01-30T00:42:52;98.30;;;34.75;;
60370;SDS011;48550;40.588;49.684;2023-01-30T00:45:37;92.30;;;33.85;;
60370;SDS011;48550;40.588;49.684;2023-01-30T00:48:23;82.72;;;34.75;;
60370;SDS011;48550;40.588;49.684;2023-01-30T00:50:49;95.15;;;34.03;;
60370;SDS011;48550;40.588;49.684;2023-01-30T00:53:15;106.97;;;33.88;;
60370;SDS011;48550;40.588;49.684;2023-01-30T00:55:41;89.47;;;32.47;;
60370;SDS011;48550;40.588;49.684;2023-01-30T02:29:25;84.28;;;34.60;;
60370;SDS011;48550;40.588;49.684;2023-01-30T02:34:56;90.60;;;35.72;;
60370;SDS011;48550;40.588;49.684;2023-01-30T02:40:15;84.93;;;33.92;;
60370;SDS011;48550;40.588;49.684;2023-01-30T02:42:55;84.75;;;34.42;;
60370;SDS011;48550;40.588;49.684;2023-01-30T02:45:33;93.07;;;35.25;;
60370;SDS011;48550;40.588;49.684;2023-01-30T02:48:05;89.45;;;37.08;;
60370;SDS011;48550;40.588;49.684;2023-01-30T02:50:39;86.53;;;36.55;;
60370;SDS011;48550;40.588;49.684;2023-01-30T02:53:11;83.55;;;32.88;;
60370;SDS011;48550;40.588;49.684;2023-01-30T02:55:38;83.93;;;32.95;;
60370;SDS011;48550;40.588;49.684;2023-01-30T02:58:06;93.97;;;35.75;;
60370;SDS011;48550;40.588;49.684;2023-01-30T03:03:39;89.30;;;34.20;;
60370;SDS011;48550;40.588;49.684;2023-01-30T03:12:57;85.10;;;32.40;;
60370;SDS011;48550;40.588;49.684;2023-01-30T03:17:36;97.30;;;35.42;;
60370;SDS011;48550;40.588;49.684;2023-01-30T03:20:08;93.07;;;36.05;;
60370;SDS011;48550;40.588;49.684;2023-01-30T03:22:34;99.95;;;36.47;;
60370;SDS011;48550;40.588;49.684;2023-01-30T03:25:00;85.70;;;36.47;;
60370;SDS011;48550;40.588;49.684;2023-01-30T03:27:26;95.32;;;34.83;;
60370;SDS011;48550;40.588;49.684;2023-01-30T03:29:52;91.18;;;35.25;;
60370;SDS011;48550;40.588;49.684;2023-01-30T03:32:17;93.18;;;35.95;;
60370;SDS011;48550;40.588;49.684;2023-01-30T03:34:43;99.45;;;36.53;;
60370;SDS011;48550;40.588;49.684;2023-01-30T03:37:09;96.40;;;35.47;;
60370;SDS011;48550;40.588;49.684;2023-01-30T03:39:34;102.13;;;37.30;;
60370;SDS011;48550;40.588;49.684;2023-01-30T03:42:00;107.60;;;38.20;;
60370;SDS011;48550;40.588;49.684;2023-01-30T03:44:26;99.65;;;36.70;;
60370;SDS011;48550;40.588;49.684;2023-01-30T03:46:52;92.78;;;37.17;;
60370;SDS011;48550;40.588;49.684;2023-01-30T03:49:18;90.95;;;36.70;;
60370;SDS011;48550;40.588;49.684;2023-01-30T03:51:44;105.15;;;38.88;;
60370;SDS011;48550;40.588;49.684;2023-01-30T03:54:10;106.25;;;39.75;;
60370;SDS011;48550;40.588;49.684;2023-01-30T03:56:36;100.78;;;37.13;;
60370;SDS011;48550;40.588;49.684;2023-01-30T03:59:02;101.28;;;37.97;;
60370;SDS011;48550;40.588;49.684;2023-01-30T04:01:28;110.80;;;39.78;;
60370;SDS011;48550;40.588;49.684;2023-01-30T04:03:54;97.30;;;37.90;;
60370;SDS011;48550;40.588;49.684;2023-01-30T04:06:19;106.05;;;38.88;;
60370;SDS011;48550;40.588;49.684;2023-01-30T04:08:45;103.03;;;38.65;;
60370;SDS011;48550;40.588;49.684;2023-01-30T04:11:11;99.38;;;39.35;;
60370;SDS011;48550;40.588;49.684;2023-01-30T04:13:36;94.35;;;38.72;;
60370;SDS011;48550;40.588;49.684;2023-01-30T04:16:15;95.47;;;39.42;;
60370;SDS011;48550;40.588;49.684;2023-01-30T04:18:43;98.63;;;38.00;;
60370;SDS011;48550;40.588;49.684;2023-01-30T04:21:09;108.20;;;39.17;;
60370;SDS011;48550;40.588;49.684;2023-01-30T04:23:34;90.90;;;35.85;;
60370;SDS011;48550;40.588;49.684;2023-01-30T04:26:00;107.95;;;40.08;;
60370;SDS011;48550;40.588;49.684;2023-01-30T04:28:26;94.75;;;36.35;;
60370;SDS011;48550;40.588;49.684;2023-01-30T04:30:52;103.68;;;39.47;;
60370;SDS011;48550;40.588;49.684;2023-01-30T04:33:18;109.05;;;38.60;;
60370;SDS011;48550;40.588;49.684;2023-01-30T04:35:50;94.82;;;39.13;;
60370;SDS011;48550;40.588;49.684;2023-01-30T04:38:20;104.45;;;38.17;;
60370;SDS011;48550;40.588;49.684;2023-01-30T04:40:50;115.82;;;41.45;;
60370;SDS011;48550;40.588;49.684;2023-01-30T04:43:18;98.32;;;37.70;;
60370;SDS011;48550;40.588;49.684;2023-01-30T04:45:45;98.63;;;37.22;;
60370;SDS011;48550;40.588;49.684;2023-01-30T04:48:11;98.05;;;37.72;;
60370;SDS011;48550;40.588;49.684;2023-01-30T04:50:37;97.22;;;36.83;;
60370;SDS011;48550;40.588;49.684;2023-01-30T04:53:04;100.28;;;36.70;;
60370;SDS011;48550;40.588;49.684;2023-01-30T04:55:30;92.55;;;35.83;;
60370;SDS011;48550;40.588;49.684;2023-01-30T04:57:56;98.65;;;36.40;;
60370;SDS011;48550;40.588;49.684;2023-01-30T05:00:22;99.13;;;37.22;;
60370;SDS011;48550;40.588;49.684;2023-01-30T05:02:48;130.77;;;46.78;;
60370;SDS011;48550;40.588;49.684;2023-01-30T05:05:14;110.45;;;37.85;;
60370;SDS011;48550;40.588;49.684;2023-01-30T05:07:39;119.88;;;42.47;;
60370;SDS011;48550;40.588;49.684;2023-01-30T05:10:05;90.55;;;35.88;;
60370;SDS011;48550;40.588;49.684;2023-01-30T05:12:31;93.38;;;34.58;;
60370;SDS011;48550;40.588;49.684;2023-01-30T05:14:57;87.00;;;34.55;;
60370;SDS011;48550;40.588;49.684;2023-01-30T05:17:23;100.00;;;34.50;;
60370;SDS011;48550;40.588;49.684;2023-01-30T05:19:48;108.47;;;39.33;;
60370;SDS011;48550;40.588;49.684;2023-01-30T05:22:14;85.22;;;35.03;;
60370;SDS011;48550;40.588;49.684;2023-01-30T05:24:40;93.93;;;35.35;;
60370;SDS011;48550;40.588;49.684;2023-01-30T05:27:05;95.60;;;35.85;;
60370;SDS011;48550;40.588;49.684;2023-01-30T05:29:31;96.10;;;35.08;;
60370;SDS011;48550;40.588;49.684;2023-01-30T05:31:57;98.18;;;36.95;;
60370;SDS011;48550;40.588;49.684;2023-01-30T05:34:23;97.38;;;35.83;;
60370;SDS011;48550;40.588;49.684;2023-01-30T05:36:48;108.00;;;38.20;;
60370;SDS011;48550;40.588;49.684;2023-01-30T05:39:14;102.97;;;36.10;;
60370;SDS011;48550;40.588;49.684;2023-01-30T05:41:40;94.70;;;36.75;;
60370;SDS011;48550;40.588;49.684;2023-01-30T05:44:05;102.78;;;36.35;;
60370;SDS011;48550;40.588;49.684;2023-01-30T05:46:31;102.53;;;36.90;;
60370;SDS011;48550;40.588;49.684;2023-01-30T05:48:57;92.05;;;38.45;;
60370;SDS011;48550;40.588;49.684;2023-01-30T05:51:24;94.35;;;36.22;;
60370;SDS011;48550;40.588;49.684;2023-01-30T05:53:50;99.28;;;39.42;;
60370;SDS011;48550;40.588;49.684;2023-01-30T05:56:17;90.13;;;38.17;;
60370;SDS011;48550;40.588;49.684;2023-01-30T05:58:48;103.43;;;38.67;;
60370;SDS011;48550;40.588;49.684;2023-01-30T06:01:15;128.10;;;49.83;;
60370;SDS011;48550;40.588;49.684;2023-01-30T06:03:41;98.15;;;37.65;;
60370;SDS011;48550;40.588;49.684;2023-01-30T06:06:07;101.20;;;39.40;;
60370;SDS011;48550;40.588;49.684;2023-01-30T06:08:34;107.15;;;41.50;;
60370;SDS011;48550;40.588;49.684;2023-01-30T06:11:10;97.18;;;36.33;;
60370;SDS011;48550;40.588;49.684;2023-01-30T06:13:40;95.60;;;38.13;;
60370;SDS011;48550;40.588;49.684;2023-01-30T06:16:07;93.45;;;37.75;;
60370;SDS011;48550;40.588;49.684;2023-01-30T06:18:36;108.28;;;41.33;;
60370;SDS011;48550;40.588;49.684;2023-01-30T06:21:02;104.75;;;39.13;;
60370;SDS011;48550;40.588;49.684;2023-01-30T06:23:29;100.00;;;37.83;;
60370;SDS011;48550;40.588;49.684;2023-01-30T06:25:55;178.68;;;70.93;;
60370;SDS011;48550;40.588;49.684;2023-01-30T06:28:21;95.85;;;39.05;;
60370;SDS011;48550;40.588;49.684;2023-01-30T06:30:48;102.10;;;45.30;;
60370;SDS011;48550;40.588;49.684;2023-01-30T06:33:14;97.40;;;37.97;;
60370;SDS011;48550;40.588;49.684;2023-01-30T06:35:40;91.32;;;36.50;;
60370;SDS011;48550;40.588;49.684;2023-01-30T06:38:07;88.22;;;37.10;;
60370;SDS011;48550;40.588;49.684;2023-01-30T06:40:35;89.82;;;36.70;;
60370;SDS011;48550;40.588;49.684;2023-01-30T06:43:02;87.20;;;35.67;;
60370;SDS011;48550;40.588;49.684;2023-01-30T06:45:28;101.65;;;37.92;;
60370;SDS011;48550;40.588;49.684;2023-01-30T06:47:54;88.45;;;36.15;;
60370;SDS011;48550;40.588;49.684;2023-01-30T06:50:22;83.05;;;35.50;;
60370;SDS011;48550;40.588;49.684;2023-01-30T06:52:49;85.45;;;35.30;;
60370;SDS011;48550;40.588;49.684;2023-01-30T06:55:17;81.88;;;36.15;;
60370;SDS011;48550;40.588;49.684;2023-01-30T06:57:45;96.82;;;34.97;;
60370;SDS011;48550;40.588;49.684;2023-01-30T07:00:13;87.93;;;33.58;;
60370;SDS011;48550;40.588;49.684;2023-01-30T07:02:40;80.70;;;33.42;;
60370;SDS011;48550;40.588;49.684;2023-01-30T07:05:07;93.32;;;34.33;;
60370;SDS011;48550;40.588;49.684;2023-01-30T07:07:33;83.57;;;34.63;;
60370;SDS011;48550;40.588;49.684;2023-01-30T07:09:59;89.75;;;34.35;;
60370;SDS011;48550;40.588;49.684;2023-01-30T07:12:26;81.82;;;33.83;;
60370;SDS011;48550;40.588;49.684;2023-01-30T07:14:52;81.97;;;33.05;;
60370;SDS011;48550;40.588;49.684;2023-01-30T07:17:18;90.38;;;33.63;;
60370;SDS011;48550;40.588;49.684;2023-01-30T07:19:45;90.68;;;32.97;;
60370;SDS011;48550;40.588;49.684;2023-01-30T07:22:11;79.30;;;32.58;;
60370;SDS011;48550;40.588;49.684;2023-01-30T07:24:37;77.38;;;33.78;;
60370;SDS011;48550;40.588;49.684;2023-01-30T07:27:06;79.88;;;31.95;;
60370;SDS011;48550;40.588;49.684;2023-01-30T07:29:33;74.35;;;30.67;;
60370;SDS011;48550;40.588;49.684;2023-01-30T07:31:59;69.53;;;30.27;;
60370;SDS011;48550;40.588;49.684;2023-01-30T07:34:25;67.32;;;29.88;;
60370;SDS011;48550;40.588;49.684;2023-01-30T07:36:51;63.95;;;27.58;;
60370;SDS011;48550;40.588;49.684;2023-01-30T07:39:17;83.45;;;38.60;;
60370;SDS011;48550;40.588;49.684;2023-01-30T07:41:42;65.18;;;29.73;;
60370;SDS011;48550;40.588;49.684;2023-01-30T07:44:08;61.83;;;27.95;;
60370;SDS011;48550;40.588;49.684;2023-01-30T07:46:34;61.25;;;27.55;;
60370;SDS011;48550;40.588;49.684;2023-01-30T07:49:00;69.32;;;29.20;;
60370;SDS011;48550;40.588;49.684;2023-01-30T07:51:26;56.22;;;27.48;;
60370;SDS011;48550;40.588;49.684;2023-01-30T07:53:52;56.88;;;25.50;;
60370;SDS011;48550;40.588;49.684;2023-01-30T07:56:18;59.85;;;25.90;;
60370;SDS011;48550;40.588;49.684;2023-01-30T07:58:46;57.97;;;25.08;;
60370;SDS011;48550;40.588;49.684;2023-01-30T08:01:12;55.80;;;25.42;;
60370;SDS011;48550;40.588;49.684;2023-01-30T08:03:38;59.30;;;26.85;;
60370;SDS011;48550;40.588;49.684;2023-01-30T08:06:04;61.88;;;27.70;;
60370;SDS011;48550;40.588;49.684;2023-01-30T08:08:30;59.78;;;26.40;;
60370;SDS011;48550;40.588;49.684;2023-01-30T08:10:56;57.35;;;27.17;;
60370;SDS011;48550;40.588;49.684;2023-01-30T08:13:21;60.80;;;27.17;;
60370;SDS011;48550;40.588;49.684;2023-01-30T08:15:47;65.32;;;28.55;;
60370;SDS011;48550;40.588;49.684;2023-01-30T08:18:14;76.18;;;30.58;;
60370;SDS011;48550;40.588;49.684;2023-01-30T08:20:39;71.10;;;28.52;;
60370;SDS011;48550;40.588;49.684;2023-01-30T08:23:07;60.38;;;29.08;;
60370;SDS011;48550;40.588;49.684;2023-01-30T08:25:33;74.35;;;30.73;;
60370;SDS011;48550;40.588;49.684;2023-01-30T08:27:59;71.30;;;28.77;;
60370;SDS011;48550;40.588;49.684;2023-01-30T08:30:26;73.10;;;30.25;;
60370;SDS011;48550;40.588;49.684;2023-01-30T08:32:52;63.10;;;30.55;;
60370;SDS011;48550;40.588;49.684;2023-01-30T08:35:18;65.65;;;28.60;;
60370;SDS011;48550;40.588;49.684;2023-01-30T08:37:44;123.93;;;31.15;;
60370;SDS011;48550;40.588;49.684;2023-01-30T09:18:18;73.10;;;30.85;;
60370;SDS011;48550;40.588;49.684;2023-01-30T09:20:44;67.70;;;31.90;;
60370;SDS011;48550;40.588;49.684;2023-01-30T09:23:10;70.53;;;32.47;;
60370;SDS011;48550;40.588;49.684;2023-01-30T09:25:36;74.45;;;28.05;;
60370;SDS011;48550;40.588;49.684;2023-01-30T09:28:01;65.88;;;31.42;;
60370;SDS011;48550;40.588;49.684;2023-01-30T09:30:28;69.45;;;32.15;;
60370;SDS011;48550;40.588;49.684;2023-01-30T09:32:53;77.68;;;32.70;;
60370;SDS011;48550;40.588;49.684;2023-01-30T09:35:19;77.75;;;31.58;;
60370;SDS011;48550;40.588;49.684;2023-01-30T09:37:45;70.10;;;30.83;;
60370;SDS011;48550;40.588;49.684;2023-01-30T09:40:13;68.28;;;31.33;;
60370;SDS011;48550;40.588;49.684;2023-01-30T09:48:23;70.60;;;30.25;;
60370;SDS011;48550;40.588;49.684;2023-01-30T09:53:34;67.10;;;30.13;;
60370;SDS011;48550;40.588;49.684;2023-01-30T09:56:01;68.05;;;28.70;;
60370;SDS011;48550;40.588;49.684;2023-01-30T09:59:11;80.57;;;31.65;;
60370;SDS011;48550;40.588;49.684;2023-01-30T10:12:30;76.60;;;29.83;;
60370;SDS011;48550;40.588;49.684;2023-01-30T10:15:20;77.32;;;32.78;;
60370;SDS011;48550;40.588;49.684;2023-01-30T10:26:16;74.22;;;31.15;;
60370;SDS011;48550;40.588;49.684;2023-01-30T10:31:43;82.32;;;31.95;;
60370;SDS011;48550;40.588;49.684;2023-01-30T10:34:21;74.38;;;30.75;;
60370;SDS011;48550;40.588;49.684;2023-01-30T10:36:53;84.05;;;30.52;;
60370;SDS011;48550;40.588;49.684;2023-01-30T10:39:36;65.07;;;29.40;;
60370;SDS011;48550;40.588;49.684;2023-01-30T10:42:13;80.72;;;32.35;;
60370;SDS011;48550;40.588;49.684;2023-01-30T10:44:44;73.55;;;28.88;;
60370;SDS011;48550;40.588;49.684;2023-01-30T10:49:44;83.93;;;29.98;;
60370;SDS011;48550;40.588;49.684;2023-01-30T11:00:53;83.72;;;33.17;;
60370;SDS011;48550;40.588;49.684;2023-01-30T11:03:23;82.50;;;34.00;;
60370;SDS011;48550;40.588;49.684;2023-01-30T11:05:52;84.68;;;34.05;;
60370;SDS011;48550;40.588;49.684;2023-01-30T11:08:23;86.95;;;32.67;;
60370;SDS011;48550;40.588;49.684;2023-01-30T11:10:54;93.47;;;32.55;;
60370;SDS011;48550;40.588;49.684;2023-01-30T11:13:22;88.57;;;35.50;;
60370;SDS011;48550;40.588;49.684;2023-01-30T11:15:52;94.97;;;35.80;;
60370;SDS011;48550;40.588;49.684;2023-01-30T11:18:20;91.95;;;38.40;;
60370;SDS011;48550;40.588;49.684;2023-01-30T11:21:21;89.65;;;33.72;;
60370;SDS011;48550;40.588;49.684;2023-01-30T11:23:53;90.43;;;37.13;;
60370;SDS011;48550;40.588;49.684;2023-01-30T11:26:23;87.75;;;33.80;;
60370;SDS011;48550;40.588;49.684;2023-01-30T11:28:59;86.50;;;34.03;;
60370;SDS011;48550;40.588;49.684;2023-01-30T11:31:49;88.88;;;34.63;;
60370;SDS011;48550;40.588;49.684;2023-01-30T11:34:16;91.07;;;34.72;;
60370;SDS011;48550;40.588;49.684;2023-01-30T11:36:43;86.05;;;34.25;;
60370;SDS011;48550;40.588;49.684;2023-01-30T11:41:41;92.50;;;37.45;;
60370;SDS011;48550;40.588;49.684;2023-01-30T11:44:08;87.57;;;34.53;;
60370;SDS011;48550;40.588;49.684;2023-01-30T11:46:36;98.38;;;38.78;;
60370;SDS011;48550;40.588;49.684;2023-01-30T11:49:11;117.32;;;38.60;;
60370;SDS011;48550;40.588;49.684;2023-01-30T11:51:39;121.25;;;38.15;;
60370;SDS011;48550;40.588;49.684;2023-01-30T11:54:29;96.93;;;36.78;;
60370;SDS011;48550;40.588;49.684;2023-01-30T11:57:00;97.05;;;37.22;;
60370;SDS011;48550;40.588;49.684;2023-01-30T11:59:31;93.07;;;36.38;;
60370;SDS011;48550;40.588;49.684;2023-01-30T12:02:03;98.30;;;36.97;;
60370;SDS011;48550;40.588;49.684;2023-01-30T12:07:30;104.03;;;38.15;;
60370;SDS011;48550;40.588;49.684;2023-01-30T12:09:58;94.95;;;36.92;;
60370;SDS011;48550;40.588;49.684;2023-01-30T12:12:29;105.22;;;38.55;;
60370;SDS011;48550;40.588;49.684;2023-01-30T12:15:18;109.63;;;41.60;;
60370;SDS011;48550;40.588;49.684;2023-01-30T12:23:36;117.63;;;41.38;;
60370;SDS011;48550;40.588;49.684;2023-01-30T12:26:40;100.97;;;35.72;;
60370;SDS011;48550;40.588;49.684;2023-01-30T12:32:06;91.90;;;35.63;;
60370;SDS011;48550;40.588;49.684;2023-01-30T12:34:37;114.17;;;41.83;;
60370;SDS011;48550;40.588;49.684;2023-01-30T12:39:58;97.05;;;38.92;;
60370;SDS011;48550;40.588;49.684;2023-01-30T12:45:28;109.55;;;40.28;;
60370;SDS011;48550;40.588;49.684;2023-01-30T12:50:34;98.43;;;37.55;;
60370;SDS011;48550;40.588;49.684;2023-01-30T12:53:28;94.35;;;36.78;;
60370;SDS011;48550;40.588;49.684;2023-01-30T12:59:02;95.28;;;36.75;;
60370;SDS011;48550;40.588;49.684;2023-01-30T13:18:14;92.20;;;37.83;;
60370;SDS011;48550;40.588;49.684;2023-01-30T13:20:59;137.27;;;57.47;;
60370;SDS011;48550;40.588;49.684;2023-01-30T13:28:36;162.25;;;63.17;;
60370;SDS011;48550;40.588;49.684;2023-01-30T13:31:07;104.43;;;44.90;;
60370;SDS011;48550;40.588;49.684;2023-01-30T13:33:37;87.95;;;37.40;;
60370;SDS011;48550;40.588;49.684;2023-01-30T13:36:09;101.55;;;42.03;;
60370;SDS011;48550;40.588;49.684;2023-01-30T13:38:39;102.07;;;41.95;;
60370;SDS011;48550;40.588;49.684;2023-01-30T13:41:14;99.50;;;36.90;;
60370;SDS011;48550;40.588;49.684;2023-01-30T13:43:43;86.65;;;35.25;;
60370;SDS011;48550;40.588;49.684;2023-01-30T13:46:16;85.15;;;36.13;;
60370;SDS011;48550;40.588;49.684;2023-01-30T13:48:55;60.10;;;25.92;;
60370;SDS011;48550;40.588;49.684;2023-01-30T13:51:42;82.90;;;32.28;;
60370;SDS011;48550;40.588;49.684;2023-01-30T13:56:54;83.55;;;35.35;;
60370;SDS011;48550;40.588;49.684;2023-01-30T14:02:22;63.55;;;28.50;;
60370;SDS011;48550;40.588;49.684;2023-01-30T14:04:55;97.85;;;36.05;;
60370;SDS011;48550;40.588;49.684;2023-01-30T14:07:26;76.78;;;30.27;;
60370;SDS011;48550;40.588;49.684;2023-01-30T14:12:39;79.72;;;33.47;;
60370;SDS011;48550;40.588;49.684;2023-01-30T14:20:24;78.97;;;31.80;;
60370;SDS011;48550;40.588;49.684;2023-01-30T14:22:53;91.07;;;33.80;;
60370;SDS011;48550;40.588;49.684;2023-01-30T14:30:32;78.00;;;34.55;;
60370;SDS011;48550;40.588;49.684;2023-01-30T14:33:02;77.40;;;32.28;;
60370;SDS011;48550;40.588;49.684;2023-01-30T14:35:48;70.45;;;30.65;;
60370;SDS011;48550;40.588;49.684;2023-01-30T14:38:39;77.63;;;29.50;;
60370;SDS011;48550;40.588;49.684;2023-01-30T14:51:22;77.88;;;33.13;;
60370;SDS011;48550;40.588;49.684;2023-01-30T15:07:12;80.20;;;32.90;;
60370;SDS011;48550;40.588;49.684;2023-01-30T15:15:47;76.43;;;31.55;;
60370;SDS011;48550;40.588;49.684;2023-01-30T15:23:47;76.65;;;31.90;;
60370;SDS011;48550;40.588;49.684;2023-01-30T15:27:00;94.40;;;35.03;;
60370;SDS011;48550;40.588;49.684;2023-01-30T15:32:46;72.15;;;31.70;;
60370;SDS011;48550;40.588;49.684;2023-01-30T15:37:54;71.35;;;31.55;;
60370;SDS011;48550;40.588;49.684;2023-01-30T15:40:27;70.95;;;30.00;;
60370;SDS011;48550;40.588;49.684;2023-01-30T15:51:10;73.82;;;31.55;;
60370;SDS011;48550;40.588;49.684;2023-01-30T15:53:40;81.57;;;34.47;;
60370;SDS011;48550;40.588;49.684;2023-01-30T15:56:09;80.15;;;35.38;;
60370;SDS011;48550;40.588;49.684;2023-01-30T15:58:41;78.20;;;34.40;;
60370;SDS011;48550;40.588;49.684;2023-01-30T16:01:08;93.63;;;35.38;;
60370;SDS011;48550;40.588;49.684;2023-01-30T16:03:40;87.15;;;38.17;;
60370;SDS011;48550;40.588;49.684;2023-01-30T16:06:18;97.05;;;37.90;;
60370;SDS011;48550;40.588;49.684;2023-01-30T16:08:53;91.40;;;37.55;;
60370;SDS011;48550;40.588;49.684;2023-01-30T16:11:40;99.97;;;39.75;;
60370;SDS011;48550;40.588;49.684;2023-01-30T16:14:17;97.47;;;37.65;;
60370;SDS011;48550;40.588;49.684;2023-01-30T16:19:28;90.03;;;38.58;;
60370;SDS011;48550;40.588;49.684;2023-01-30T16:22:00;95.10;;;38.88;;
60370;SDS011;48550;40.588;49.684;2023-01-30T16:24:29;105.55;;;40.70;;
60370;SDS011;48550;40.588;49.684;2023-01-30T16:27:01;94.87;;;38.63;;
60370;SDS011;48550;40.588;49.684;2023-01-30T16:29:31;99.05;;;39.85;;
60370;SDS011;48550;40.588;49.684;2023-01-30T16:32:11;99.10;;;39.60;;
60370;SDS011;48550;40.588;49.684;2023-01-30T16:34:38;103.72;;;40.42;;
60370;SDS011;48550;40.588;49.684;2023-01-30T16:40:17;104.40;;;39.22;;
60370;SDS011;48550;40.588;49.684;2023-01-30T16:53:24;109.30;;;42.60;;
60370;SDS011;48550;40.588;49.684;2023-01-30T16:56:08;105.50;;;41.33;;
60370;SDS011;48550;40.588;49.684;2023-01-30T16:58:38;103.38;;;40.45;;
60370;SDS011;48550;40.588;49.684;2023-01-30T17:01:08;115.70;;;45.00;;
60370;SDS011;48550;40.588;49.684;2023-01-30T17:03:35;112.35;;;39.72;;
60370;SDS011;48550;40.588;49.684;2023-01-30T17:06:24;104.38;;;39.05;;
60370;SDS011;48550;40.588;49.684;2023-01-30T17:08:58;104.70;;;39.65;;
60370;SDS011;48550;40.588;49.684;2023-01-30T17:11:30;103.05;;;42.55;;
60370;SDS011;48550;40.588;49.684;2023-01-30T17:16:58;105.45;;;39.45;;
60370;SDS011;48550;40.588;49.684;2023-01-30T17:19:36;109.07;;;39.38;;
60370;SDS011;48550;40.588;49.684;2023-01-30T17:22:03;90.68;;;37.67;;
60370;SDS011;48550;40.588;49.684;2023-01-30T17:24:32;105.70;;;39.63;;
60370;SDS011;48550;40.588;49.684;2023-01-30T17:27:01;97.85;;;36.83;;
60370;SDS011;48550;40.588;49.684;2023-01-30T17:29:30;100.68;;;36.95;;
60370;SDS011;48550;40.588;49.684;2023-01-30T17:31:57;101.80;;;41.22;;
60370;SDS011;48550;40.588;49.684;2023-01-30T17:34:23;91.07;;;36.70;;
60370;SDS011;48550;40.588;49.684;2023-01-30T17:36:52;104.72;;;40.53;;
60370;SDS011;48550;40.588;49.684;2023-01-30T17:39:19;101.80;;;39.08;;
60370;SDS011;48550;40.588;49.684;2023-01-30T17:41:49;93.57;;;36.67;;
60370;SDS011;48550;40.588;49.684;2023-01-30T17:44:15;92.28;;;35.22;;
60370;SDS011;48550;40.588;49.684;2023-01-30T17:46:42;90.90;;;36.58;;
60370;SDS011;48550;40.588;49.684;2023-01-30T17:49:17;86.10;;;36.38;;
60370;SDS011;48550;40.588;49.684;2023-01-30T17:51:44;95.22;;;35.25;;
60370;SDS011;48550;40.588;49.684;2023-01-30T17:54:10;95.85;;;37.17;;
60370;SDS011;48550;40.588;49.684;2023-01-30T17:56:38;93.57;;;36.45;;
60370;SDS011;48550;40.588;49.684;2023-01-30T17:59:12;97.05;;;36.63;;
60370;SDS011;48550;40.588;49.684;2023-01-30T18:01:40;77.03;;;32.08;;
60370;SDS011;48550;40.588;49.684;2023-01-30T18:04:13;90.03;;;37.05;;
60370;SDS011;48550;40.588;49.684;2023-01-30T18:06:40;96.25;;;36.92;;
60370;SDS011;48550;40.588;49.684;2023-01-30T18:09:14;96.68;;;38.08;;
60370;SDS011;48550;40.588;49.684;2023-01-30T18:11:45;79.85;;;34.72;;
60370;SDS011;48550;40.588;49.684;2023-01-30T18:14:12;91.78;;;34.42;;
60370;SDS011;48550;40.588;49.684;2023-01-30T18:16:38;91.55;;;34.05;;
60370;SDS011;48550;40.588;49.684;2023-01-30T18:19:05;95.50;;;36.72;;
60370;SDS011;48550;40.588;49.684;2023-01-30T18:21:33;91.43;;;36.47;;
60370;SDS011;48550;40.588;49.684;2023-01-30T18:24:02;86.03;;;34.53;;
60370;SDS011;48550;40.588;49.684;2023-01-30T18:26:28;101.93;;;37.65;;
60370;SDS011;48550;40.588;49.684;2023-01-30T18:28:54;111.30;;;37.47;;
60370;SDS011;48550;40.588;49.684;2023-01-30T18:31:20;100.65;;;37.83;;
60370;SDS011;48550;40.588;49.684;2023-01-30T18:33:49;98.80;;;38.20;;
60370;SDS011;48550;40.588;49.684;2023-01-30T18:36:16;106.85;;;39.70;;
60370;SDS011;48550;40.588;49.684;2023-01-30T18:38:46;102.40;;;39.10;;
60370;SDS011;48550;40.588;49.684;2023-01-30T18:41:13;99.15;;;39.45;;
60370;SDS011;48550;40.588;49.684;2023-01-30T18:43:44;101.38;;;39.58;;
60370;SDS011;48550;40.588;49.684;2023-01-30T18:46:16;101.65;;;38.95;;
60370;SDS011;48550;40.588;49.684;2023-01-30T18:48:42;104.47;;;41.03;;
60370;SDS011;48550;40.588;49.684;2023-01-30T18:51:12;106.97;;;41.63;;
60370;SDS011;48550;40.588;49.684;2023-01-30T18:53:43;111.78;;;42.30;;
60370;SDS011;48550;40.588;49.684;2023-01-30T18:56:11;108.18;;;41.03;;
60370;SDS011;48550;40.588;49.684;2023-01-30T18:58:45;113.05;;;43.33;;
60370;SDS011;48550;40.588;49.684;2023-01-30T19:01:15;119.15;;;42.47;;
60370;SDS011;48550;40.588;49.684;2023-01-30T19:03:42;101.00;;;42.00;;
60370;SDS011;48550;40.588;49.684;2023-01-30T19:06:08;110.32;;;41.95;;
60370;SDS011;48550;40.588;49.684;2023-01-30T19:08:35;105.80;;;41.35;;
60370;SDS011;48550;40.588;49.684;2023-01-30T19:11:02;103.53;;;40.15;;
60370;SDS011;48550;40.588;49.684;2023-01-30T19:13:51;112.43;;;40.25;;
60370;SDS011;48550;40.588;49.684;2023-01-30T19:16:18;101.85;;;39.60;;
60370;SDS011;48550;40.588;49.684;2023-01-30T19:18:47;102.90;;;40.30;;
60370;SDS011;48550;40.588;49.684;2023-01-30T19:21:14;92.35;;;37.58;;
60370;SDS011;48550;40.588;49.684;2023-01-30T19:23:40;105.38;;;40.70;;
60370;SDS011;48550;40.588;49.684;2023-01-30T19:26:06;112.35;;;41.00;;
60370;SDS011;48550;40.588;49.684;2023-01-30T19:28:33;107.38;;;40.58;;
60370;SDS011;48550;40.588;49.684;2023-01-30T19:31:03;99.28;;;38.90;;
60370;SDS011;48550;40.588;49.684;2023-01-30T19:33:30;99.55;;;39.33;;
60370;SDS011;48550;40.588;49.684;2023-01-30T19:36:19;93.78;;;39.47;;
60370;SDS011;48550;40.588;49.684;2023-01-30T19:38:45;97.43;;;39.72;;
60370;SDS011;48550;40.588;49.684;2023-01-30T19:41:18;111.53;;;40.58;;
60370;SDS011;48550;40.588;49.684;2023-01-30T19:43:48;89.55;;;37.13;;